sensor_id;sensor_type;location;lat;lon;timestamp;P1;durP1;ratioP1;P2;durP2;ratioP2
72924;SDS011;61070;50.794;7.054;2023-10-19T00:00:29;13.60;;;9.52;;
72924;SDS011;61070;50.794;7.054;2023-10-19T00:01:33;13.68;;;9.65;;
72924;SDS011;61070;50.794;7.054;2023-10-19T00:02:34;15.48;;;9.70;;
72924;SDS011;61070;50.794;7.054;2023-10-19T00:03:34;13.73;;;9.70;;
72924;SDS011;61070;50.794;7.054;2023-10-19T00:04:35;16.60;;;9.55;;
72924;SDS011;61070;50.794;7.054;2023-10-19T00:05:36;16.13;;;10.55;;
72924;SDS011;61070;50.794;7.054;2023-10-19T00:06:36;15.23;;;9.95;;
72924;SDS011;61070;50.794;7.054;2023-10-19T00:07:40;16.73;;;10.52;;
72924;SDS011;61070;50.794;7.054;2023-10-19T00:08:41;16.80;;;9.38;;
72924;SDS011;61070;50.794;7.054;2023-10-19T00:09:42;17.90;;;11.07;;
72924;SDS011;61070;50.794;7.054;2023-10-19T00:10:47;17.35;;;10.43;;
72924;SDS011;61070;50.794;7.054;2023-10-19T00:11:55;17.00;;;10.32;;
72924;SDS011;61070;50.794;7.054;2023-10-19T00:12:55;15.20;;;9.57;;
72924;SDS011;61070;50.794;7.054;2023-10-19T00:14:05;15.63;;;10.60;;
72924;SDS011;61070;50.794;7.054;2023-10-19T00:15:14;15.38;;;10.85;;
72924;SDS011;61070;50.794;7.054;2023-10-19T00:16:15;14.18;;;10.30;;
72924;SDS011;61070;50.794;7.054;2023-10-19T00:17:22;18.45;;;10.65;;
72924;SDS011;61070;50.794;7.054;2023-10-19T00:18:25;15.85;;;10.23;;
72924;SDS011;61070;50.794;7.054;2023-10-19T00:19:27;17.77;;;11.07;;
72924;SDS011;61070;50.794;7.054;2023-10-19T00:20:30;16.58;;;10.32;;
72924;SDS011;61070;50.794;7.054;2023-10-19T00:21:49;21.63;;;10.40;;
72924;SDS011;61070;50.794;7.054;2023-10-19T00:22:54;18.10;;;10.52;;
72924;SDS011;61070;50.794;7.054;2023-10-19T00:23:56;14.90;;;9.73;;
72924;SDS011;61070;50.794;7.054;2023-10-19T00:24:57;15.90;;;10.65;;
72924;SDS011;61070;50.794;7.054;2023-10-19T00:25:59;17.33;;;10.38;;
72924;SDS011;61070;50.794;7.054;2023-10-19T00:27:05;14.10;;;10.02;;
72924;SDS011;61070;50.794;7.054;2023-10-19T00:28:15;15.77;;;10.27;;
72924;SDS011;61070;50.794;7.054;2023-10-19T00:29:17;16.83;;;10.27;;
72924;SDS011;61070;50.794;7.054;2023-10-19T00:30:33;14.57;;;10.27;;
72924;SDS011;61070;50.794;7.054;2023-10-19T00:31:35;17.58;;;10.50;;
72924;SDS011;61070;50.794;7.054;2023-10-19T00:32:40;18.42;;;10.80;;
72924;SDS011;61070;50.794;7.054;2023-10-19T00:33:40;16.83;;;11.38;;
72924;SDS011;61070;50.794;7.054;2023-10-19T00:34:41;15.90;;;10.32;;
72924;SDS011;61070;50.794;7.054;2023-10-19T00:35:43;19.40;;;10.60;;
72924;SDS011;61070;50.794;7.054;2023-10-19T00:37:07;17.02;;;10.40;;
72924;SDS011;61070;50.794;7.054;2023-10-19T00:38:08;15.90;;;10.88;;
72924;SDS011;61070;50.794;7.054;2023-10-19T00:39:26;15.88;;;10.52;;
72924;SDS011;61070;50.794;7.054;2023-10-19T00:40:27;16.23;;;9.88;;
72924;SDS011;61070;50.794;7.054;2023-10-19T00:41:34;14.13;;;10.45;;
72924;SDS011;61070;50.794;7.054;2023-10-19T00:42:35;15.27;;;10.68;;
72924;SDS011;61070;50.794;7.054;2023-10-19T00:43:39;14.50;;;10.07;;
72924;SDS011;61070;50.794;7.054;2023-10-19T00:44:43;16.45;;;10.55;;
72924;SDS011;61070;50.794;7.054;2023-10-19T00:45:49;15.32;;;10.15;;
72924;SDS011;61070;50.794;7.054;2023-10-19T00:46:52;15.02;;;10.10;;
72924;SDS011;61070;50.794;7.054;2023-10-19T00:48:00;17.95;;;10.20;;
72924;SDS011;61070;50.794;7.054;2023-10-19T00:49:01;13.98;;;9.63;;
72924;SDS011;61070;50.794;7.054;2023-10-19T00:50:06;15.07;;;10.00;;
72924;SDS011;61070;50.794;7.054;2023-10-19T00:51:13;18.98;;;10.38;;
72924;SDS011;61070;50.794;7.054;2023-10-19T00:52:29;11.52;;;9.30;;
72924;SDS011;61070;50.794;7.054;2023-10-19T00:53:32;11.93;;;8.90;;
72924;SDS011;61070;50.794;7.054;2023-10-19T00:54:35;13.57;;;10.32;;
72924;SDS011;61070;50.794;7.054;2023-10-19T00:55:38;13.45;;;10.05;;
72924;SDS011;61070;50.794;7.054;2023-10-19T00:56:38;14.57;;;10.25;;
72924;SDS011;61070;50.794;7.054;2023-10-19T00:57:41;17.88;;;10.48;;
72924;SDS011;61070;50.794;7.054;2023-10-19T00:58:46;17.25;;;10.52;;
72924;SDS011;61070;50.794;7.054;2023-10-19T00:59:53;13.88;;;10.23;;
72924;SDS011;61070;50.794;7.054;2023-10-19T01:00:54;18.10;;;10.77;;
72924;SDS011;61070;50.794;7.054;2023-10-19T01:01:55;16.30;;;10.27;;
72924;SDS011;61070;50.794;7.054;2023-10-19T01:03:03;14.95;;;9.93;;
72924;SDS011;61070;50.794;7.054;2023-10-19T01:04:05;18.98;;;10.38;;
72924;SDS011;61070;50.794;7.054;2023-10-19T01:05:05;14.88;;;10.00;;
72924;SDS011;61070;50.794;7.054;2023-10-19T01:06:06;16.67;;;9.20;;
72924;SDS011;61070;50.794;7.054;2023-10-19T01:07:10;23.00;;;10.05;;
72924;SDS011;61070;50.794;7.054;2023-10-19T01:08:13;16.55;;;10.07;;
72924;SDS011;61070;50.794;7.054;2023-10-19T01:09:24;14.55;;;9.27;;
72924;SDS011;61070;50.794;7.054;2023-10-19T01:10:27;17.10;;;10.13;;
72924;SDS011;61070;50.794;7.054;2023-10-19T01:11:28;15.13;;;9.77;;
72924;SDS011;61070;50.794;7.054;2023-10-19T01:12:28;15.27;;;9.95;;
72924;SDS011;61070;50.794;7.054;2023-10-19T01:13:49;15.95;;;10.07;;
72924;SDS011;61070;50.794;7.054;2023-10-19T01:15:01;13.38;;;9.75;;
72924;SDS011;61070;50.794;7.054;2023-10-19T01:16:17;19.00;;;10.77;;
72924;SDS011;61070;50.794;7.054;2023-10-19T01:17:21;15.40;;;10.45;;
72924;SDS011;61070;50.794;7.054;2023-10-19T01:18:22;16.15;;;10.48;;
72924;SDS011;61070;50.794;7.054;2023-10-19T01:19:22;14.70;;;10.30;;
72924;SDS011;61070;50.794;7.054;2023-10-19T01:20:24;12.93;;;9.45;;
72924;SDS011;61070;50.794;7.054;2023-10-19T01:21:30;14.52;;;9.82;;
72924;SDS011;61070;50.794;7.054;2023-10-19T01:22:37;16.40;;;10.68;;
72924;SDS011;61070;50.794;7.054;2023-10-19T01:23:37;14.68;;;10.30;;
72924;SDS011;61070;50.794;7.054;2023-10-19T01:24:38;16.30;;;9.80;;
72924;SDS011;61070;50.794;7.054;2023-10-19T01:26:54;15.68;;;10.30;;
72924;SDS011;61070;50.794;7.054;2023-10-19T01:27:56;16.88;;;10.35;;
72924;SDS011;61070;50.794;7.054;2023-10-19T01:28:57;18.05;;;10.52;;
72924;SDS011;61070;50.794;7.054;2023-10-19T01:30:01;18.35;;;11.25;;
72924;SDS011;61070;50.794;7.054;2023-10-19T01:31:03;15.50;;;10.98;;
72924;SDS011;61070;50.794;7.054;2023-10-19T01:32:08;13.07;;;10.48;;
72924;SDS011;61070;50.794;7.054;2023-10-19T01:33:08;16.08;;;9.95;;
72924;SDS011;61070;50.794;7.054;2023-10-19T01:34:12;13.32;;;9.80;;
72924;SDS011;61070;50.794;7.054;2023-10-19T01:35:14;15.10;;;10.10;;
72924;SDS011;61070;50.794;7.054;2023-10-19T01:36:14;14.52;;;10.20;;
72924;SDS011;61070;50.794;7.054;2023-10-19T01:37:24;16.15;;;10.63;;
72924;SDS011;61070;50.794;7.054;2023-10-19T01:38:24;14.20;;;9.73;;
72924;SDS011;61070;50.794;7.054;2023-10-19T01:39:25;14.32;;;10.60;;
72924;SDS011;61070;50.794;7.054;2023-10-19T01:40:25;15.88;;;9.52;;
72924;SDS011;61070;50.794;7.054;2023-10-19T01:41:30;15.75;;;9.95;;
72924;SDS011;61070;50.794;7.054;2023-10-19T01:42:31;18.52;;;10.80;;
72924;SDS011;61070;50.794;7.054;2023-10-19T01:43:31;14.73;;;10.95;;
72924;SDS011;61070;50.794;7.054;2023-10-19T01:44:31;15.57;;;9.98;;
72924;SDS011;61070;50.794;7.054;2023-10-19T01:45:33;15.85;;;10.80;;
72924;SDS011;61070;50.794;7.054;2023-10-19T01:46:34;14.00;;;9.88;;
72924;SDS011;61070;50.794;7.054;2023-10-19T01:47:35;13.98;;;9.43;;
72924;SDS011;61070;50.794;7.054;2023-10-19T01:48:35;13.80;;;10.20;;
72924;SDS011;61070;50.794;7.054;2023-10-19T01:49:38;13.77;;;9.70;;
72924;SDS011;61070;50.794;7.054;2023-10-19T01:50:38;20.88;;;10.60;;
72924;SDS011;61070;50.794;7.054;2023-10-19T01:51:39;15.48;;;10.93;;
72924;SDS011;61070;50.794;7.054;2023-10-19T01:52:39;16.95;;;11.05;;
72924;SDS011;61070;50.794;7.054;2023-10-19T01:53:40;16.13;;;9.82;;
72924;SDS011;61070;50.794;7.054;2023-10-19T01:54:44;16.45;;;9.93;;
72924;SDS011;61070;50.794;7.054;2023-10-19T01:55:45;14.23;;;10.38;;
72924;SDS011;61070;50.794;7.054;2023-10-19T01:56:47;17.70;;;10.45;;
72924;SDS011;61070;50.794;7.054;2023-10-19T01:57:48;14.15;;;10.30;;
72924;SDS011;61070;50.794;7.054;2023-10-19T01:58:49;18.02;;;10.55;;
72924;SDS011;61070;50.794;7.054;2023-10-19T01:59:51;13.32;;;9.82;;
72924;SDS011;61070;50.794;7.054;2023-10-19T02:00:54;15.48;;;9.73;;
72924;SDS011;61070;50.794;7.054;2023-10-19T02:02:00;16.92;;;10.45;;
72924;SDS011;61070;50.794;7.054;2023-10-19T02:03:05;10.88;;;9.18;;
72924;SDS011;61070;50.794;7.054;2023-10-19T02:04:07;16.65;;;9.57;;
72924;SDS011;61070;50.794;7.054;2023-10-19T02:05:09;16.52;;;10.57;;
72924;SDS011;61070;50.794;7.054;2023-10-19T02:06:15;13.63;;;9.90;;
72924;SDS011;61070;50.794;7.054;2023-10-19T02:07:19;15.07;;;9.48;;
72924;SDS011;61070;50.794;7.054;2023-10-19T02:08:20;23.83;;;10.60;;
72924;SDS011;61070;50.794;7.054;2023-10-19T02:09:25;19.80;;;9.45;;
72924;SDS011;61070;50.794;7.054;2023-10-19T02:10:34;13.55;;;9.13;;
72924;SDS011;61070;50.794;7.054;2023-10-19T02:11:36;13.65;;;9.07;;
72924;SDS011;61070;50.794;7.054;2023-10-19T02:12:41;18.73;;;10.38;;
72924;SDS011;61070;50.794;7.054;2023-10-19T02:13:42;14.00;;;9.32;;
72924;SDS011;61070;50.794;7.054;2023-10-19T02:14:46;16.92;;;10.52;;
72924;SDS011;61070;50.794;7.054;2023-10-19T02:15:46;15.55;;;9.45;;
72924;SDS011;61070;50.794;7.054;2023-10-19T02:16:48;14.27;;;9.52;;
72924;SDS011;61070;50.794;7.054;2023-10-19T02:17:52;14.60;;;9.85;;
72924;SDS011;61070;50.794;7.054;2023-10-19T02:18:55;18.92;;;10.18;;
72924;SDS011;61070;50.794;7.054;2023-10-19T02:19:56;17.85;;;10.85;;
72924;SDS011;61070;50.794;7.054;2023-10-19T02:20:58;13.63;;;9.70;;
72924;SDS011;61070;50.794;7.054;2023-10-19T02:21:59;13.77;;;9.57;;
72924;SDS011;61070;50.794;7.054;2023-10-19T02:23:04;12.27;;;9.05;;
72924;SDS011;61070;50.794;7.054;2023-10-19T02:24:08;12.60;;;9.40;;
72924;SDS011;61070;50.794;7.054;2023-10-19T02:25:14;16.05;;;10.13;;
72924;SDS011;61070;50.794;7.054;2023-10-19T02:26:14;15.20;;;9.73;;
72924;SDS011;61070;50.794;7.054;2023-10-19T02:27:14;16.17;;;9.63;;
72924;SDS011;61070;50.794;7.054;2023-10-19T02:28:15;18.73;;;9.52;;
72924;SDS011;61070;50.794;7.054;2023-10-19T02:29:15;12.32;;;8.75;;
72924;SDS011;61070;50.794;7.054;2023-10-19T02:30:15;15.25;;;9.32;;
72924;SDS011;61070;50.794;7.054;2023-10-19T02:31:18;11.82;;;8.93;;
72924;SDS011;61070;50.794;7.054;2023-10-19T02:32:21;13.43;;;9.82;;
72924;SDS011;61070;50.794;7.054;2023-10-19T02:33:24;11.88;;;9.13;;
72924;SDS011;61070;50.794;7.054;2023-10-19T02:34:26;17.27;;;9.40;;
72924;SDS011;61070;50.794;7.054;2023-10-19T02:35:27;18.50;;;9.88;;
72924;SDS011;61070;50.794;7.054;2023-10-19T02:36:28;14.65;;;9.90;;
72924;SDS011;61070;50.794;7.054;2023-10-19T02:37:29;19.45;;;11.50;;
72924;SDS011;61070;50.794;7.054;2023-10-19T02:38:30;15.65;;;11.27;;
72924;SDS011;61070;50.794;7.054;2023-10-19T02:39:30;17.63;;;11.25;;
72924;SDS011;61070;50.794;7.054;2023-10-19T02:40:30;16.27;;;11.27;;
72924;SDS011;61070;50.794;7.054;2023-10-19T02:41:31;19.90;;;10.60;;
72924;SDS011;61070;50.794;7.054;2023-10-19T02:42:35;14.50;;;9.68;;
72924;SDS011;61070;50.794;7.054;2023-10-19T02:43:36;15.35;;;10.45;;
72924;SDS011;61070;50.794;7.054;2023-10-19T02:44:37;19.05;;;11.05;;
72924;SDS011;61070;50.794;7.054;2023-10-19T02:45:38;14.88;;;10.65;;
72924;SDS011;61070;50.794;7.054;2023-10-19T02:46:38;16.55;;;10.88;;
72924;SDS011;61070;50.794;7.054;2023-10-19T02:47:39;15.75;;;11.10;;
72924;SDS011;61070;50.794;7.054;2023-10-19T02:48:41;13.25;;;10.70;;
72924;SDS011;61070;50.794;7.054;2023-10-19T02:49:44;19.30;;;11.10;;
72924;SDS011;61070;50.794;7.054;2023-10-19T02:50:52;15.88;;;10.98;;
72924;SDS011;61070;50.794;7.054;2023-10-19T02:51:52;18.35;;;11.25;;
72924;SDS011;61070;50.794;7.054;2023-10-19T02:52:53;14.38;;;10.77;;
72924;SDS011;61070;50.794;7.054;2023-10-19T02:53:53;12.90;;;9.93;;
72924;SDS011;61070;50.794;7.054;2023-10-19T02:54:54;16.30;;;10.38;;
72924;SDS011;61070;50.794;7.054;2023-10-19T02:55:57;13.52;;;9.95;;
72924;SDS011;61070;50.794;7.054;2023-10-19T02:56:59;14.27;;;10.00;;
72924;SDS011;61070;50.794;7.054;2023-10-19T02:58:00;13.85;;;10.13;;
72924;SDS011;61070;50.794;7.054;2023-10-19T02:59:00;15.07;;;10.10;;
72924;SDS011;61070;50.794;7.054;2023-10-19T03:00:04;18.98;;;10.15;;
72924;SDS011;61070;50.794;7.054;2023-10-19T03:01:14;17.15;;;11.45;;
72924;SDS011;61070;50.794;7.054;2023-10-19T03:02:19;15.77;;;10.23;;
72924;SDS011;61070;50.794;7.054;2023-10-19T03:03:20;16.70;;;9.90;;
72924;SDS011;61070;50.794;7.054;2023-10-19T03:04:20;15.60;;;10.10;;
72924;SDS011;61070;50.794;7.054;2023-10-19T03:05:20;18.60;;;10.80;;
72924;SDS011;61070;50.794;7.054;2023-10-19T03:06:21;18.55;;;10.80;;
72924;SDS011;61070;50.794;7.054;2023-10-19T03:07:21;13.60;;;9.88;;
72924;SDS011;61070;50.794;7.054;2023-10-19T03:08:22;15.02;;;9.05;;
72924;SDS011;61070;50.794;7.054;2023-10-19T03:09:26;16.08;;;9.65;;
72924;SDS011;61070;50.794;7.054;2023-10-19T03:10:26;13.60;;;9.82;;
72924;SDS011;61070;50.794;7.054;2023-10-19T03:11:42;15.45;;;9.77;;
72924;SDS011;61070;50.794;7.054;2023-10-19T03:12:44;14.25;;;9.88;;
72924;SDS011;61070;50.794;7.054;2023-10-19T03:13:44;14.40;;;9.63;;
72924;SDS011;61070;50.794;7.054;2023-10-19T03:14:45;13.95;;;10.15;;
72924;SDS011;61070;50.794;7.054;2023-10-19T03:15:47;14.48;;;9.40;;
72924;SDS011;61070;50.794;7.054;2023-10-19T03:16:48;19.92;;;10.52;;
72924;SDS011;61070;50.794;7.054;2023-10-19T03:17:49;12.70;;;9.63;;
72924;SDS011;61070;50.794;7.054;2023-10-19T03:18:50;14.65;;;10.27;;
72924;SDS011;61070;50.794;7.054;2023-10-19T03:19:50;19.48;;;9.90;;
72924;SDS011;61070;50.794;7.054;2023-10-19T03:20:50;14.60;;;9.57;;
72924;SDS011;61070;50.794;7.054;2023-10-19T03:21:51;15.98;;;9.57;;
72924;SDS011;61070;50.794;7.054;2023-10-19T03:22:52;15.90;;;10.18;;
72924;SDS011;61070;50.794;7.054;2023-10-19T03:23:55;14.32;;;9.82;;
72924;SDS011;61070;50.794;7.054;2023-10-19T03:24:56;12.13;;;9.45;;
72924;SDS011;61070;50.794;7.054;2023-10-19T03:26:20;13.90;;;9.65;;
72924;SDS011;61070;50.794;7.054;2023-10-19T03:27:36;17.90;;;10.85;;
72924;SDS011;61070;50.794;7.054;2023-10-19T03:28:37;13.73;;;9.63;;
72924;SDS011;61070;50.794;7.054;2023-10-19T03:29:38;12.40;;;9.77;;
72924;SDS011;61070;50.794;7.054;2023-10-19T03:30:46;14.52;;;10.05;;
72924;SDS011;61070;50.794;7.054;2023-10-19T03:31:47;18.75;;;10.35;;
72924;SDS011;61070;50.794;7.054;2023-10-19T03:32:47;18.33;;;10.40;;
72924;SDS011;61070;50.794;7.054;2023-10-19T03:33:47;15.00;;;9.70;;
72924;SDS011;61070;50.794;7.054;2023-10-19T03:34:54;15.98;;;9.48;;
72924;SDS011;61070;50.794;7.054;2023-10-19T03:35:55;15.98;;;9.63;;
72924;SDS011;61070;50.794;7.054;2023-10-19T03:36:56;13.32;;;9.18;;
72924;SDS011;61070;50.794;7.054;2023-10-19T03:37:56;16.95;;;8.70;;
72924;SDS011;61070;50.794;7.054;2023-10-19T03:39:00;12.80;;;9.40;;
72924;SDS011;61070;50.794;7.054;2023-10-19T03:40:11;13.55;;;8.77;;
72924;SDS011;61070;50.794;7.054;2023-10-19T03:41:16;14.25;;;8.52;;
72924;SDS011;61070;50.794;7.054;2023-10-19T03:42:21;12.43;;;9.18;;
72924;SDS011;61070;50.794;7.054;2023-10-19T03:43:21;18.95;;;8.68;;
72924;SDS011;61070;50.794;7.054;2023-10-19T03:44:22;15.07;;;8.85;;
72924;SDS011;61070;50.794;7.054;2023-10-19T03:45:22;15.15;;;9.05;;
72924;SDS011;61070;50.794;7.054;2023-10-19T03:46:24;13.63;;;8.98;;
72924;SDS011;61070;50.794;7.054;2023-10-19T03:47:28;12.85;;;9.32;;
72924;SDS011;61070;50.794;7.054;2023-10-19T03:48:34;16.38;;;8.90;;
72924;SDS011;61070;50.794;7.054;2023-10-19T03:49:38;15.88;;;9.50;;
72924;SDS011;61070;50.794;7.054;2023-10-19T03:50:39;14.13;;;9.00;;
72924;SDS011;61070;50.794;7.054;2023-10-19T03:51:40;12.45;;;7.80;;
72924;SDS011;61070;50.794;7.054;2023-10-19T03:52:48;13.57;;;8.07;;
72924;SDS011;61070;50.794;7.054;2023-10-19T03:53:48;12.02;;;8.23;;
72924;SDS011;61070;50.794;7.054;2023-10-19T03:54:55;14.50;;;8.10;;
72924;SDS011;61070;50.794;7.054;2023-10-19T03:55:55;14.60;;;7.53;;
72924;SDS011;61070;50.794;7.054;2023-10-19T03:56:55;15.77;;;8.48;;
72924;SDS011;61070;50.794;7.054;2023-10-19T03:57:57;18.83;;;10.25;;
72924;SDS011;61070;50.794;7.054;2023-10-19T03:58:57;22.48;;;10.07;;
72924;SDS011;61070;50.794;7.054;2023-10-19T03:59:58;19.05;;;10.85;;
72924;SDS011;61070;50.794;7.054;2023-10-19T04:00:59;21.00;;;10.73;;
72924;SDS011;61070;50.794;7.054;2023-10-19T04:02:05;21.45;;;11.10;;
72924;SDS011;61070;50.794;7.054;2023-10-19T04:03:10;18.90;;;10.85;;
72924;SDS011;61070;50.794;7.054;2023-10-19T04:04:10;16.42;;;12.00;;
72924;SDS011;61070;50.794;7.054;2023-10-19T04:05:11;17.48;;;10.98;;
72924;SDS011;61070;50.794;7.054;2023-10-19T04:06:14;14.02;;;10.98;;
72924;SDS011;61070;50.794;7.054;2023-10-19T04:07:15;14.60;;;10.73;;
72924;SDS011;61070;50.794;7.054;2023-10-19T04:08:21;17.77;;;11.05;;
72924;SDS011;61070;50.794;7.054;2023-10-19T04:09:26;16.20;;;11.68;;
72924;SDS011;61070;50.794;7.054;2023-10-19T04:10:29;15.55;;;11.25;;
72924;SDS011;61070;50.794;7.054;2023-10-19T04:11:30;15.88;;;11.88;;
72924;SDS011;61070;50.794;7.054;2023-10-19T04:12:47;16.70;;;11.48;;
72924;SDS011;61070;50.794;7.054;2023-10-19T04:13:49;16.58;;;12.02;;
72924;SDS011;61070;50.794;7.054;2023-10-19T04:14:56;17.23;;;12.57;;
72924;SDS011;61070;50.794;7.054;2023-10-19T04:15:56;16.83;;;12.32;;
72924;SDS011;61070;50.794;7.054;2023-10-19T04:16:57;17.08;;;12.35;;
72924;SDS011;61070;50.794;7.054;2023-10-19T04:17:59;15.40;;;11.50;;
72924;SDS011;61070;50.794;7.054;2023-10-19T04:19:00;15.88;;;11.63;;
72924;SDS011;61070;50.794;7.054;2023-10-19T04:20:04;15.75;;;10.75;;
72924;SDS011;61070;50.794;7.054;2023-10-19T04:21:34;17.77;;;10.27;;
72924;SDS011;61070;50.794;7.054;2023-10-19T04:22:38;14.52;;;10.50;;
72924;SDS011;61070;50.794;7.054;2023-10-19T04:23:39;17.58;;;10.63;;
72924;SDS011;61070;50.794;7.054;2023-10-19T04:24:39;18.42;;;10.15;;
72924;SDS011;61070;50.794;7.054;2023-10-19T04:25:39;17.63;;;9.85;;
72924;SDS011;61070;50.794;7.054;2023-10-19T04:26:40;11.93;;;8.93;;
72924;SDS011;61070;50.794;7.054;2023-10-19T04:27:40;15.43;;;10.40;;
72924;SDS011;61070;50.794;7.054;2023-10-19T04:28:42;14.35;;;9.82;;
72924;SDS011;61070;50.794;7.054;2023-10-19T04:29:45;14.43;;;9.02;;
72924;SDS011;61070;50.794;7.054;2023-10-19T04:30:45;14.07;;;8.75;;
72924;SDS011;61070;50.794;7.054;2023-10-19T04:31:45;12.95;;;8.77;;
72924;SDS011;61070;50.794;7.054;2023-10-19T04:32:54;19.02;;;9.45;;
72924;SDS011;61070;50.794;7.054;2023-10-19T04:33:57;14.73;;;8.50;;
72924;SDS011;61070;50.794;7.054;2023-10-19T04:34:58;14.05;;;8.63;;
72924;SDS011;61070;50.794;7.054;2023-10-19T04:35:58;11.95;;;8.73;;
72924;SDS011;61070;50.794;7.054;2023-10-19T04:37:00;14.90;;;8.40;;
72924;SDS011;61070;50.794;7.054;2023-10-19T04:38:05;13.05;;;9.15;;
72924;SDS011;61070;50.794;7.054;2023-10-19T04:39:08;16.45;;;8.95;;
72924;SDS011;61070;50.794;7.054;2023-10-19T04:40:13;11.65;;;8.00;;
72924;SDS011;61070;50.794;7.054;2023-10-19T04:41:14;11.60;;;7.93;;
72924;SDS011;61070;50.794;7.054;2023-10-19T04:42:15;12.77;;;7.50;;
72924;SDS011;61070;50.794;7.054;2023-10-19T04:43:15;13.23;;;8.15;;
72924;SDS011;61070;50.794;7.054;2023-10-19T04:44:16;12.90;;;7.60;;
72924;SDS011;61070;50.794;7.054;2023-10-19T04:45:17;16.08;;;8.13;;
72924;SDS011;61070;50.794;7.054;2023-10-19T04:46:17;13.60;;;8.18;;
72924;SDS011;61070;50.794;7.054;2023-10-19T04:47:18;11.90;;;8.00;;
72924;SDS011;61070;50.794;7.054;2023-10-19T04:48:19;12.30;;;7.65;;
72924;SDS011;61070;50.794;7.054;2023-10-19T04:49:19;17.60;;;7.80;;
72924;SDS011;61070;50.794;7.054;2023-10-19T04:50:19;16.02;;;7.57;;
72924;SDS011;61070;50.794;7.054;2023-10-19T04:51:20;13.05;;;8.43;;
72924;SDS011;61070;50.794;7.054;2023-10-19T04:52:21;15.35;;;7.93;;
72924;SDS011;61070;50.794;7.054;2023-10-19T04:53:21;12.30;;;7.80;;
72924;SDS011;61070;50.794;7.054;2023-10-19T04:54:21;11.50;;;7.60;;
72924;SDS011;61070;50.794;7.054;2023-10-19T04:55:22;14.02;;;8.07;;
72924;SDS011;61070;50.794;7.054;2023-10-19T04:56:23;12.30;;;7.78;;
72924;SDS011;61070;50.794;7.054;2023-10-19T04:57:23;16.35;;;7.88;;
72924;SDS011;61070;50.794;7.054;2023-10-19T04:58:23;14.38;;;7.68;;
72924;SDS011;61070;50.794;7.054;2023-10-19T04:59:24;19.80;;;8.75;;
72924;SDS011;61070;50.794;7.054;2023-10-19T05:00:24;13.05;;;9.07;;
72924;SDS011;61070;50.794;7.054;2023-10-19T05:01:26;15.70;;;8.57;;
72924;SDS011;61070;50.794;7.054;2023-10-19T05:02:28;15.80;;;8.45;;
72924;SDS011;61070;50.794;7.054;2023-10-19T05:03:28;16.70;;;8.30;;
72924;SDS011;61070;50.794;7.054;2023-10-19T05:04:29;15.60;;;8.45;;
72924;SDS011;61070;50.794;7.054;2023-10-19T05:05:29;15.15;;;8.95;;
72924;SDS011;61070;50.794;7.054;2023-10-19T05:06:29;10.95;;;7.65;;
72924;SDS011;61070;50.794;7.054;2023-10-19T05:07:30;14.48;;;8.25;;
72924;SDS011;61070;50.794;7.054;2023-10-19T05:08:30;18.02;;;8.05;;
72924;SDS011;61070;50.794;7.054;2023-10-19T05:09:32;16.08;;;8.23;;
72924;SDS011;61070;50.794;7.054;2023-10-19T05:10:33;14.02;;;8.15;;
72924;SDS011;61070;50.794;7.054;2023-10-19T05:11:33;16.05;;;8.23;;
72924;SDS011;61070;50.794;7.054;2023-10-19T05:12:33;12.73;;;7.55;;
72924;SDS011;61070;50.794;7.054;2023-10-19T05:13:35;11.45;;;8.77;;
72924;SDS011;61070;50.794;7.054;2023-10-19T05:14:35;12.18;;;8.20;;
72924;SDS011;61070;50.794;7.054;2023-10-19T05:15:36;15.40;;;8.57;;
72924;SDS011;61070;50.794;7.054;2023-10-19T05:16:36;17.13;;;7.95;;
72924;SDS011;61070;50.794;7.054;2023-10-19T05:17:36;14.82;;;8.88;;
72924;SDS011;61070;50.794;7.054;2023-10-19T05:18:37;13.70;;;8.18;;
72924;SDS011;61070;50.794;7.054;2023-10-19T05:19:38;12.55;;;7.82;;
72924;SDS011;61070;50.794;7.054;2023-10-19T05:20:39;20.88;;;8.85;;
72924;SDS011;61070;50.794;7.054;2023-10-19T05:21:40;12.65;;;8.23;;
72924;SDS011;61070;50.794;7.054;2023-10-19T05:22:40;12.48;;;8.40;;
72924;SDS011;61070;50.794;7.054;2023-10-19T05:23:41;10.90;;;6.43;;
72924;SDS011;61070;50.794;7.054;2023-10-19T05:24:41;11.05;;;7.20;;
72924;SDS011;61070;50.794;7.054;2023-10-19T05:25:42;12.75;;;7.85;;
72924;SDS011;61070;50.794;7.054;2023-10-19T05:26:42;11.45;;;7.30;;
72924;SDS011;61070;50.794;7.054;2023-10-19T05:27:42;11.90;;;7.80;;
72924;SDS011;61070;50.794;7.054;2023-10-19T05:28:45;15.00;;;7.43;;
72924;SDS011;61070;50.794;7.054;2023-10-19T05:29:47;13.60;;;7.97;;
72924;SDS011;61070;50.794;7.054;2023-10-19T05:30:47;15.43;;;7.80;;
72924;SDS011;61070;50.794;7.054;2023-10-19T05:31:52;14.10;;;8.00;;
72924;SDS011;61070;50.794;7.054;2023-10-19T05:32:53;12.98;;;7.97;;
72924;SDS011;61070;50.794;7.054;2023-10-19T05:33:55;20.63;;;7.80;;
72924;SDS011;61070;50.794;7.054;2023-10-19T05:34:56;12.95;;;7.15;;
72924;SDS011;61070;50.794;7.054;2023-10-19T05:35:57;15.00;;;8.30;;
72924;SDS011;61070;50.794;7.054;2023-10-19T05:36:57;14.00;;;7.78;;
72924;SDS011;61070;50.794;7.054;2023-10-19T05:38:02;12.23;;;7.70;;
72924;SDS011;61070;50.794;7.054;2023-10-19T05:39:03;13.98;;;8.55;;
72924;SDS011;61070;50.794;7.054;2023-10-19T05:40:08;15.30;;;7.95;;
72924;SDS011;61070;50.794;7.054;2023-10-19T05:41:12;10.63;;;7.97;;
72924;SDS011;61070;50.794;7.054;2023-10-19T05:42:14;13.70;;;7.68;;
72924;SDS011;61070;50.794;7.054;2023-10-19T05:43:14;15.60;;;8.82;;
72924;SDS011;61070;50.794;7.054;2023-10-19T05:44:15;19.50;;;9.55;;
72924;SDS011;61070;50.794;7.054;2023-10-19T05:45:16;14.30;;;8.63;;
72924;SDS011;61070;50.794;7.054;2023-10-19T05:46:19;12.82;;;8.63;;
72924;SDS011;61070;50.794;7.054;2023-10-19T05:47:22;13.63;;;8.20;;
72924;SDS011;61070;50.794;7.054;2023-10-19T05:48:22;14.27;;;8.63;;
72924;SDS011;61070;50.794;7.054;2023-10-19T05:49:25;11.32;;;8.10;;
72924;SDS011;61070;50.794;7.054;2023-10-19T05:50:26;14.05;;;8.52;;
72924;SDS011;61070;50.794;7.054;2023-10-19T05:51:28;15.35;;;8.93;;
72924;SDS011;61070;50.794;7.054;2023-10-19T05:52:28;11.95;;;8.32;;
72924;SDS011;61070;50.794;7.054;2023-10-19T05:53:29;16.48;;;8.48;;
72924;SDS011;61070;50.794;7.054;2023-10-19T05:54:30;13.60;;;8.60;;
72924;SDS011;61070;50.794;7.054;2023-10-19T05:55:30;13.70;;;7.97;;
72924;SDS011;61070;50.794;7.054;2023-10-19T05:56:31;12.45;;;8.57;;
72924;SDS011;61070;50.794;7.054;2023-10-19T05:57:34;18.77;;;9.00;;
72924;SDS011;61070;50.794;7.054;2023-10-19T05:58:35;14.20;;;9.45;;
72924;SDS011;61070;50.794;7.054;2023-10-19T05:59:35;13.00;;;8.75;;
72924;SDS011;61070;50.794;7.054;2023-10-19T06:00:36;17.92;;;8.93;;
72924;SDS011;61070;50.794;7.054;2023-10-19T06:01:37;14.95;;;9.02;;
72924;SDS011;61070;50.794;7.054;2023-10-19T06:02:48;14.82;;;9.38;;
72924;SDS011;61070;50.794;7.054;2023-10-19T06:03:49;15.05;;;9.25;;
72924;SDS011;61070;50.794;7.054;2023-10-19T06:04:51;15.75;;;8.68;;
72924;SDS011;61070;50.794;7.054;2023-10-19T06:05:51;14.63;;;8.88;;
72924;SDS011;61070;50.794;7.054;2023-10-19T06:06:54;12.65;;;8.57;;
72924;SDS011;61070;50.794;7.054;2023-10-19T06:07:54;16.23;;;9.65;;
72924;SDS011;61070;50.794;7.054;2023-10-19T06:08:55;14.63;;;8.88;;
72924;SDS011;61070;50.794;7.054;2023-10-19T06:09:55;15.20;;;9.45;;
72924;SDS011;61070;50.794;7.054;2023-10-19T06:10:56;13.07;;;8.88;;